sensor_id;sensor_type;location;lat;lon;timestamp;pressure;altitude;pressure_sealevel;temperature;humidity
79400;BME280;68856;45.586;10.264;2024-01-30T00:02:20;101401.31;;;1.89;100.00
79400;BME280;68856;45.586;10.264;2024-01-30T00:04:46;101393.41;;;2.69;100.00
79400;BME280;68856;45.586;10.264;2024-01-30T00:07:12;101397.25;;;2.22;100.00
79400;BME280;68856;45.586;10.264;2024-01-30T00:09:39;101397.09;;;1.96;100.00
79400;BME280;68856;45.586;10.264;2024-01-30T00:12:06;101396.75;;;1.72;100.00
79400;BME280;68856;45.586;10.264;2024-01-30T00:14:32;101396.63;;;1.64;100.00
79400;BME280;68856;45.586;10.264;2024-01-30T00:16:58;101402.34;;;1.78;100.00
79400;BME280;68856;45.586;10.264;2024-01-30T00:19:25;101399.25;;;1.73;100.00
79400;BME280;68856;45.586;10.264;2024-01-30T00:21:51;101401.81;;;1.75;100.00
79400;BME280;68856;45.586;10.264;2024-01-30T00:24:17;101394.91;;;1.72;100.00
79400;BME280;68856;45.586;10.264;2024-01-30T00:26:44;101398.34;;;1.65;100.00
79400;BME280;68856;45.586;10.264;2024-01-30T00:29:10;101393.16;;;2.45;100.00
79400;BME280;68856;45.586;10.264;2024-01-30T00:31:36;101391.75;;;2.41;100.00
79400;BME280;68856;45.586;10.264;2024-01-30T00:34:03;101390.31;;;2.64;100.00
79400;BME280;68856;45.586;10.264;2024-01-30T00:36:29;101388.00;;;2.07;100.00
79400;BME280;68856;45.586;10.264;2024-01-30T00:38:56;101388.44;;;1.75;100.00
79400;BME280;68856;45.586;10.264;2024-01-30T00:41:22;101390.47;;;1.54;100.00
79400;BME280;68856;45.586;10.264;2024-01-30T00:43:48;101394.22;;;1.61;100.00
79400;BME280;68856;45.586;10.264;2024-01-30T00:46:15;101394.41;;;1.59;100.00
79400;BME280;68856;45.586;10.264;2024-01-30T00:48:41;101395.69;;;1.92;100.00
79400;BME280;68856;45.586;10.264;2024-01-30T00:51:07;101393.66;;;1.67;100.00
79400;BME280;68856;45.586;10.264;2024-01-30T00:53:34;101398.69;;;1.79;100.00
79400;BME280;68856;45.586;10.264;2024-01-30T00:56:00;101393.69;;;1.48;100.00
79400;BME280;68856;45.586;10.264;2024-01-30T00:58:26;101395.72;;;1.36;100.00
79400;BME280;68856;45.586;10.264;2024-01-30T01:00:52;101397.81;;;1.33;100.00
79400;BME280;68856;45.586;10.264;2024-01-30T01:03:18;101400.38;;;1.34;100.00
79400;BME280;68856;45.586;10.264;2024-01-30T01:05:45;101395.34;;;1.68;100.00
79400;BME280;68856;45.586;10.264;2024-01-30T01:08:11;101396.97;;;2.15;100.00
79400;BME280;68856;45.586;10.264;2024-01-30T01:10:38;101394.53;;;1.58;100.00
79400;BME280;68856;45.586;10.264;2024-01-30T01:13:04;101394.13;;;1.53;100.00
79400;BME280;68856;45.586;10.264;2024-01-30T01:15:30;101394.44;;;1.40;100.00
79400;BME280;68856;45.586;10.264;2024-01-30T01:17:56;101390.75;;;1.51;100.00
79400;BME280;68856;45.586;10.264;2024-01-30T01:20:23;101389.91;;;1.50;100.00
79400;BME280;68856;45.586;10.264;2024-01-30T01:22:49;101391.19;;;1.46;100.00
79400;BME280;68856;45.586;10.264;2024-01-30T01:25:15;101389.50;;;1.36;100.00
79400;BME280;68856;45.586;10.264;2024-01-30T01:27:41;101390.38;;;1.36;100.00
79400;BME280;68856;45.586;10.264;2024-01-30T01:30:11;101385.88;;;1.17;100.00
79400;BME280;68856;45.586;10.264;2024-01-30T01:32:40;101397.28;;;1.19;100.00
79400;BME280;68856;45.586;10.264;2024-01-30T01:35:10;101392.13;;;1.64;100.00
79400;BME280;68856;45.586;10.264;2024-01-30T01:37:37;101386.97;;;1.44;100.00
79400;BME280;68856;45.586;10.264;2024-01-30T01:40:03;101384.22;;;1.63;100.00
79400;BME280;68856;45.586;10.264;2024-01-30T01:42:29;101387.84;;;1.25;100.00
79400;BME280;68856;45.586;10.264;2024-01-30T01:44:56;101381.88;;;1.41;100.00
79400;BME280;68856;45.586;10.264;2024-01-30T01:47:22;101385.56;;;1.30;100.00
79400;BME280;68856;45.586;10.264;2024-01-30T01:49:49;101384.75;;;1.76;100.00
79400;BME280;68856;45.586;10.264;2024-01-30T01:52:15;101387.22;;;1.50;100.00
79400;BME280;68856;45.586;10.264;2024-01-30T01:54:43;101380.47;;;1.46;100.00
79400;BME280;68856;45.586;10.264;2024-01-30T01:57:09;101383.56;;;1.51;100.00
79400;BME280;68856;45.586;10.264;2024-01-30T01:59:35;101381.16;;;1.48;100.00
79400;BME280;68856;45.586;10.264;2024-01-30T02:02:03;101381.84;;;1.97;100.00
79400;BME280;68856;45.586;10.264;2024-01-30T02:04:29;101379.19;;;1.50;100.00
79400;BME280;68856;45.586;10.264;2024-01-30T02:06:56;101379.53;;;1.28;100.00
79400;BME280;68856;45.586;10.264;2024-01-30T02:09:22;101379.47;;;1.57;100.00
79400;BME280;68856;45.586;10.264;2024-01-30T02:11:48;101373.72;;;1.33;100.00
79400;BME280;68856;45.586;10.264;2024-01-30T02:14:14;101369.38;;;1.32;100.00
79400;BME280;68856;45.586;10.264;2024-01-30T02:16:41;101371.03;;;1.42;100.00
79400;BME280;68856;45.586;10.264;2024-01-30T02:19:07;101369.19;;;1.89;100.00
79400;BME280;68856;45.586;10.264;2024-01-30T02:21:33;101374.56;;;1.52;100.00
79400;BME280;68856;45.586;10.264;2024-01-30T02:24:00;101370.97;;;1.61;100.00
79400;BME280;68856;45.586;10.264;2024-01-30T02:26:27;101370.91;;;1.44;100.00
79400;BME280;68856;45.586;10.264;2024-01-30T02:28:53;101380.50;;;1.27;100.00
79400;BME280;68856;45.586;10.264;2024-01-30T02:31:19;101383.75;;;1.31;100.00
79400;BME280;68856;45.586;10.264;2024-01-30T02:33:45;101378.28;;;1.03;100.00
79400;BME280;68856;45.586;10.264;2024-01-30T02:36:12;101372.88;;;1.32;100.00
79400;BME280;68856;45.586;10.264;2024-01-30T02:38:38;101372.91;;;1.22;100.00
79400;BME280;68856;45.586;10.264;2024-01-30T02:41:04;101367.28;;;1.06;100.00
79400;BME280;68856;45.586;10.264;2024-01-30T02:43:30;101373.94;;;1.02;100.00
79400;BME280;68856;45.586;10.264;2024-01-30T02:45:57;101372.94;;;1.03;100.00
79400;BME280;68856;45.586;10.264;2024-01-30T02:48:24;101370.56;;;1.56;100.00
79400;BME280;68856;45.586;10.264;2024-01-30T02:50:50;101372.06;;;1.22;100.00
79400;BME280;68856;45.586;10.264;2024-01-30T02:53:16;101364.72;;;1.24;100.00
79400;BME280;68856;45.586;10.264;2024-01-30T02:55:42;101364.59;;;1.25;100.00
79400;BME280;68856;45.586;10.264;2024-01-30T02:58:09;101366.28;;;1.17;100.00
79400;BME280;68856;45.586;10.264;2024-01-30T03:00:35;101364.91;;;1.03;100.00
79400;BME280;68856;45.586;10.264;2024-01-30T03:03:01;101360.84;;;0.99;100.00
79400;BME280;68856;45.586;10.264;2024-01-30T03:05:28;101369.41;;;0.93;100.00
79400;BME280;68856;45.586;10.264;2024-01-30T03:07:54;101361.53;;;1.01;100.00
79400;BME280;68856;45.586;10.264;2024-01-30T03:10:20;101365.59;;;0.96;100.00
79400;BME280;68856;45.586;10.264;2024-01-30T03:12:46;101365.91;;;1.02;100.00
79400;BME280;68856;45.586;10.264;2024-01-30T03:15:13;101370.25;;;1.03;100.00
79400;BME280;68856;45.586;10.264;2024-01-30T03:17:39;101363.75;;;1.06;100.00
79400;BME280;68856;45.586;10.264;2024-01-30T03:20:05;101364.06;;;1.12;100.00
79400;BME280;68856;45.586;10.264;2024-01-30T03:22:32;101358.16;;;0.99;100.00
79400;BME280;68856;45.586;10.264;2024-01-30T03:24:58;101361.25;;;0.95;100.00
79400;BME280;68856;45.586;10.264;2024-01-30T03:27:25;101358.16;;;0.99;100.00
79400;BME280;68856;45.586;10.264;2024-01-30T03:29:51;101355.06;;;0.94;100.00
79400;BME280;68856;45.586;10.264;2024-01-30T03:32:18;101356.34;;;1.00;100.00
79400;BME280;68856;45.586;10.264;2024-01-30T03:34:44;101353.78;;;0.89;100.00
79400;BME280;68856;45.586;10.264;2024-01-30T03:37:10;101348.97;;;1.11;100.00
79400;BME280;68856;45.586;10.264;2024-01-30T03:39:36;101355.63;;;1.07;100.00
79400;BME280;68856;45.586;10.264;2024-01-30T03:42:03;101357.72;;;1.04;100.00
79400;BME280;68856;45.586;10.264;2024-01-30T03:44:29;101353.50;;;1.11;100.00
79400;BME280;68856;45.586;10.264;2024-01-30T03:46:55;101350.41;;;1.15;100.00
79400;BME280;68856;45.586;10.264;2024-01-30T03:49:21;101350.97;;;1.09;100.00
79400;BME280;68856;45.586;10.264;2024-01-30T03:51:48;101350.09;;;1.09;100.00
79400;BME280;68856;45.586;10.264;2024-01-30T03:54:14;101361.97;;;0.87;100.00
79400;BME280;68856;45.586;10.264;2024-01-30T03:56:40;101353.63;;;1.09;100.00
79400;BME280;68856;45.586;10.264;2024-01-30T03:59:06;101356.22;;;0.82;100.00
79400;BME280;68856;45.586;10.264;2024-01-30T04:01:33;101349.69;;;1.23;100.00
79400;BME280;68856;45.586;10.264;2024-01-30T04:03:59;101352.69;;;1.47;100.00
79400;BME280;68856;45.586;10.264;2024-01-30T04:06:26;101359.13;;;0.98;100.00
79400;BME280;68856;45.586;10.264;2024-01-30T04:08:52;101359.69;;;0.83;100.00
79400;BME280;68856;45.586;10.264;2024-01-30T04:11:21;101358.00;;;0.91;100.00
79400;BME280;68856;45.586;10.264;2024-01-30T04:13:48;101363.94;;;0.66;100.00
79400;BME280;68856;45.586;10.264;2024-01-30T04:16:21;101361.84;;;0.70;100.00
79400;BME280;68856;45.586;10.264;2024-01-30T04:18:48;101365.22;;;0.72;100.00
79400;BME280;68856;45.586;10.264;2024-01-30T04:21:14;101365.06;;;0.73;100.00
79400;BME280;68856;45.586;10.264;2024-01-30T04:23:41;101357.59;;;0.57;100.00
79400;BME280;68856;45.586;10.264;2024-01-30T04:26:08;101364.22;;;0.63;100.00
79400;BME280;68856;45.586;10.264;2024-01-30T04:28:34;101356.06;;;0.84;100.00
79400;BME280;68856;45.586;10.264;2024-01-30T04:31:00;101344.38;;;0.85;100.00
79400;BME280;68856;45.586;10.264;2024-01-30T04:33:26;101352.97;;;0.79;100.00
79400;BME280;68856;45.586;10.264;2024-01-30T04:35:52;101356.59;;;0.78;100.00
79400;BME280;68856;45.586;10.264;2024-01-30T04:38:19;101351.41;;;0.76;100.00
79400;BME280;68856;45.586;10.264;2024-01-30T04:40:45;101349.44;;;0.69;100.00
79400;BME280;68856;45.586;10.264;2024-01-30T04:43:11;101344.50;;;0.74;100.00
79400;BME280;68856;45.586;10.264;2024-01-30T04:45:37;101350.41;;;0.68;100.00
79400;BME280;68856;45.586;10.264;2024-01-30T04:48:04;101340.28;;;0.81;100.00
79400;BME280;68856;45.586;10.264;2024-01-30T04:50:30;101344.38;;;0.75;100.00
79400;BME280;68856;45.586;10.264;2024-01-30T04:52:56;101345.91;;;0.68;100.00
79400;BME280;68856;45.586;10.264;2024-01-30T04:55:22;101347.47;;;0.71;100.00
79400;BME280;68856;45.586;10.264;2024-01-30T04:57:49;101349.16;;;0.62;100.00
79400;BME280;68856;45.586;10.264;2024-01-30T05:00:15;101346.47;;;0.62;100.00
79400;BME280;68856;45.586;10.264;2024-01-30T05:02:42;101343.94;;;0.51;100.00
79400;BME280;68856;45.586;10.264;2024-01-30T05:05:08;101342.25;;;0.50;100.00
79400;BME280;68856;45.586;10.264;2024-01-30T05:07:34;101347.63;;;0.69;100.00
79400;BME280;68856;45.586;10.264;2024-01-30T05:10:01;101341.44;;;0.59;100.00
79400;BME280;68856;45.586;10.264;2024-01-30T05:12:27;101343.66;;;0.73;100.00
79400;BME280;68856;45.586;10.264;2024-01-30T05:14:53;101355.91;;;0.66;100.00
79400;BME280;68856;45.586;10.264;2024-01-30T05:17:19;101352.28;;;0.67;100.00
79400;BME280;68856;45.586;10.264;2024-01-30T05:19:46;101349.31;;;0.51;100.00
79400;BME280;68856;45.586;10.264;2024-01-30T05:22:12;101360.25;;;0.38;100.00
79400;BME280;68856;45.586;10.264;2024-01-30T05:24:41;101360.69;;;0.43;100.00
79400;BME280;68856;45.586;10.264;2024-01-30T05:27:11;101356.34;;;0.61;100.00
79400;BME280;68856;45.586;10.264;2024-01-30T05:29:39;101348.88;;;0.55;100.00
79400;BME280;68856;45.586;10.264;2024-01-30T05:32:06;101347.63;;;0.69;100.00
79400;BME280;68856;45.586;10.264;2024-01-30T05:34:33;101345.06;;;0.58;100.00
79400;BME280;68856;45.586;10.264;2024-01-30T05:36:59;101345.34;;;0.55;100.00
79400;BME280;68856;45.586;10.264;2024-01-30T05:39:25;101350.97;;;0.52;100.00
79400;BME280;68856;45.586;10.264;2024-01-30T05:41:51;101350.28;;;0.69;100.00
79400;BME280;68856;45.586;10.264;2024-01-30T05:44:18;101349.03;;;0.63;100.00
79400;BME280;68856;45.586;10.264;2024-01-30T05:46:44;101348.03;;;0.55;100.00
79400;BME280;68856;45.586;10.264;2024-01-30T05:49:10;101348.88;;;0.46;100.00
79400;BME280;68856;45.586;10.264;2024-01-30T05:51:36;101345.34;;;0.55;100.00
79400;BME280;68856;45.586;10.264;2024-01-30T05:54:03;101352.69;;;0.43;100.00
79400;BME280;68856;45.586;10.264;2024-01-30T05:56:30;101353.69;;;0.61;100.00
79400;BME280;68856;45.586;10.264;2024-01-30T05:58:56;101356.75;;;0.47;100.00
79400;BME280;68856;45.586;10.264;2024-01-30T06:01:23;101348.31;;;0.71;100.00
79400;BME280;68856;45.586;10.264;2024-01-30T06:03:49;101352.53;;;0.54;100.00
79400;BME280;68856;45.586;10.264;2024-01-30T06:06:15;101357.03;;;0.83;100.00
79400;BME280;68856;45.586;10.264;2024-01-30T06:08:41;101348.59;;;0.87;100.00
79400;BME280;68856;45.586;10.264;2024-01-30T06:11:10;101352.13;;;0.88;100.00
79400;BME280;68856;45.586;10.264;2024-01-30T06:13:37;101348.88;;;0.94;100.00
79400;BME280;68856;45.586;10.264;2024-01-30T06:16:04;101359.28;;;0.68;100.00
79400;BME280;68856;45.586;10.264;2024-01-30T06:18:30;101353.25;;;0.56;100.00
79400;BME280;68856;45.586;10.264;2024-01-30T06:20:57;101363.09;;;0.56;100.00
79400;BME280;68856;45.586;10.264;2024-01-30T06:23:23;101353.94;;;0.49;100.00
79400;BME280;68856;45.586;10.264;2024-01-30T06:25:49;101357.75;;;0.66;100.00
79400;BME280;68856;45.586;10.264;2024-01-30T06:28:16;101349.28;;;0.60;100.00
79400;BME280;68856;45.586;10.264;2024-01-30T06:30:42;101368.31;;;0.67;100.00
79400;BME280;68856;45.586;10.264;2024-01-30T06:33:11;101361.13;;;0.68;100.00
79400;BME280;68856;45.586;10.264;2024-01-30T06:35:37;101355.06;;;0.56;100.00
79400;BME280;68856;45.586;10.264;2024-01-30T06:38:06;101355.88;;;1.14;100.00
79400;BME280;68856;45.586;10.264;2024-01-30T06:40:32;101363.66;;;0.79;100.00
79400;BME280;68856;45.586;10.264;2024-01-30T06:42:58;101371.25;;;0.74;100.00
79400;BME280;68856;45.586;10.264;2024-01-30T06:45:25;101363.94;;;0.76;100.00
79400;BME280;68856;45.586;10.264;2024-01-30T06:47:51;101378.16;;;0.76;100.00
79400;BME280;68856;45.586;10.264;2024-01-30T06:50:17;101371.97;;;0.66;100.00
79400;BME280;68856;45.586;10.264;2024-01-30T06:52:43;101380.25;;;0.53;100.00
79400;BME280;68856;45.586;10.264;2024-01-30T06:55:10;101369.56;;;0.73;100.00
79400;BME280;68856;45.586;10.264;2024-01-30T06:57:36;101362.25;;;0.94;100.00
79400;BME280;68856;45.586;10.264;2024-01-30T07:00:03;101369.41;;;0.93;100.00
79400;BME280;68856;45.586;10.264;2024-01-30T07:02:29;101367.19;;;0.70;100.00
79400;BME280;68856;45.586;10.264;2024-01-30T07:04:55;101371.25;;;0.83;100.00
79400;BME280;68856;45.586;10.264;2024-01-30T07:07:21;101368.16;;;0.78;100.00
79400;BME280;68856;45.586;10.264;2024-01-30T07:09:48;101371.25;;;0.83;100.00
79400;BME280;68856;45.586;10.264;2024-01-30T07:12:17;101366.03;;;0.91;100.00
79400;BME280;68856;45.586;10.264;2024-01-30T07:14:43;101369.44;;;1.03;100.00
79400;BME280;68856;45.586;10.264;2024-01-30T07:17:09;101372.50;;;0.98;100.00
79400;BME280;68856;45.586;10.264;2024-01-30T07:19:35;101373.53;;;0.88;100.00
79400;BME280;68856;45.586;10.264;2024-01-30T07:22:02;101371.41;;;0.91;100.00
79400;BME280;68856;45.586;10.264;2024-01-30T07:24:28;101368.88;;;0.90;100.00
79400;BME280;68856;45.586;10.264;2024-01-30T07:26:54;101367.16;;;0.98;100.00
79400;BME280;68856;45.586;10.264;2024-01-30T07:29:20;101369.56;;;1.11;100.00
79400;BME280;68856;45.586;10.264;2024-01-30T07:31:47;101370.94;;;1.24;100.00
79400;BME280;68856;45.586;10.264;2024-01-30T07:34:14;101374.56;;;1.52;100.00
79400;BME280;68856;45.586;10.264;2024-01-30T07:36:40;101376.50;;;1.50;100.00
79400;BME280;68856;45.586;10.264;2024-01-30T07:39:06;101371.88;;;1.43;100.00
79400;BME280;68856;45.586;10.264;2024-01-30T07:41:33;101375.97;;;1.47;100.00
79400;BME280;68856;45.586;10.264;2024-01-30T07:43:59;101374.72;;;1.41;100.00
79400;BME280;68856;45.586;10.264;2024-01-30T07:46:25;101388.94;;;1.32;100.00
79400;BME280;68856;45.586;10.264;2024-01-30T07:48:51;101380.34;;;1.38;100.00
79400;BME280;68856;45.586;10.264;2024-01-30T07:51:18;101381.31;;;1.47;100.00
79400;BME280;68856;45.586;10.264;2024-01-30T07:53:44;101380.97;;;1.69;100.00
79400;BME280;68856;45.586;10.264;2024-01-30T07:56:11;101383.34;;;1.72;100.00
79400;BME280;68856;45.586;10.264;2024-01-30T07:58:37;101383.75;;;1.77;100.00
79400;BME280;68856;45.586;10.264;2024-01-30T08:01:04;101386.13;;;2.62;100.00
79400;BME280;68856;45.586;10.264;2024-01-30T08:03:30;101380.16;;;2.23;100.00
79400;BME280;68856;45.586;10.264;2024-01-30T08:05:56;101387.06;;;2.70;100.00
79400;BME280;68856;45.586;10.264;2024-01-30T08:08:22;101382.84;;;2.68;100.00
79400;BME280;68856;45.586;10.264;2024-01-30T08:10:49;101389.94;;;2.59;100.00
79400;BME280;68856;45.586;10.264;2024-01-30T08:13:15;101379.06;;;2.96;100.00
79400;BME280;68856;45.586;10.264;2024-01-30T08:15:42;101383.19;;;3.51;100.00
79400;BME280;68856;45.586;10.264;2024-01-30T08:18:08;101377.75;;;3.43;100.00
79400;BME280;68856;45.586;10.264;2024-01-30T08:20:34;101377.97;;;3.75;100.00
79400;BME280;68856;45.586;10.264;2024-01-30T08:23:01;101376.25;;;3.66;100.00
79400;BME280;68856;45.586;10.264;2024-01-30T08:25:27;101375.53;;;3.64;100.00
79400;BME280;68856;45.586;10.264;2024-01-30T08:27:53;101377.66;;;3.78;100.00
79400;BME280;68856;45.586;10.264;2024-01-30T08:30:19;101380.53;;;3.85;100.00
79400;BME280;68856;45.586;10.264;2024-01-30T08:32:46;101376.75;;;4.04;100.00
79400;BME280;68856;45.586;10.264;2024-01-30T08:35:13;101385.88;;;4.11;100.00
79400;BME280;68856;45.586;10.264;2024-01-30T08:37:41;101384.03;;;4.61;100.00
79400;BME280;68856;45.586;10.264;2024-01-30T08:40:08;101380.03;;;4.89;100.00
79400;BME280;68856;45.586;10.264;2024-01-30T08:42:35;101383.22;;;4.93;100.00
79400;BME280;68856;45.586;10.264;2024-01-30T08:45:01;101385.59;;;5.28;100.00
79400;BME280;68856;45.586;10.264;2024-01-30T08:47:28;101379.50;;;5.66;100.00
79400;BME280;68856;45.586;10.264;2024-01-30T08:49:54;101377.44;;;5.93;100.00
79400;BME280;68856;45.586;10.264;2024-01-30T08:52:20;101378.31;;;5.85;100.00
79400;BME280;68856;45.586;10.264;2024-01-30T08:54:47;101375.50;;;6.09;100.00
79400;BME280;68856;45.586;10.264;2024-01-30T08:57:13;101381.59;;;6.11;100.00
79400;BME280;68856;45.586;10.264;2024-01-30T08:59:39;101383.97;;;6.45;100.00
79400;BME280;68856;45.586;10.264;2024-01-30T09:02:06;101384.94;;;6.52;100.00
79400;BME280;68856;45.586;10.264;2024-01-30T09:04:32;101388.84;;;6.50;100.00
79400;BME280;68856;45.586;10.264;2024-01-30T09:06:58;101390.41;;;6.67;100.00
79400;BME280;68856;45.586;10.264;2024-01-30T09:09:25;101387.13;;;6.79;100.00
79400;BME280;68856;45.586;10.264;2024-01-30T09:11:51;101394.28;;;6.95;100.00
79400;BME280;68856;45.586;10.264;2024-01-30T09:14:17;101392.47;;;7.10;100.00
79400;BME280;68856;45.586;10.264;2024-01-30T09:16:43;101396.31;;;7.16;100.00
79400;BME280;68856;45.586;10.264;2024-01-30T09:19:10;101394.34;;;7.10;100.00
79400;BME280;68856;45.586;10.264;2024-01-30T09:21:36;101397.25;;;7.45;100.00
79400;BME280;68856;45.586;10.264;2024-01-30T09:24:03;101397.06;;;7.84;100.00
79400;BME280;68856;45.586;10.264;2024-01-30T09:26:30;101397.50;;;7.88;100.00
79400;BME280;68856;45.586;10.264;2024-01-30T09:28:56;101399.56;;;8.00;100.00
79400;BME280;68856;45.586;10.264;2024-01-30T09:31:22;101399.00;;;8.20;100.00
79400;BME280;68856;45.586;10.264;2024-01-30T09:33:49;101404.34;;;8.42;100.00
79400;BME280;68856;45.586;10.264;2024-01-30T09:36:17;101406.84;;;8.58;100.00
79400;BME280;68856;45.586;10.264;2024-01-30T09:38:45;101408.44;;;8.53;100.00
79400;BME280;68856;45.586;10.264;2024-01-30T09:41:12;101405.06;;;8.87;100.00
79400;BME280;68856;45.586;10.264;2024-01-30T09:43:39;101401.91;;;8.83;99.58
79400;BME280;68856;45.586;10.264;2024-01-30T09:46:12;101398.50;;;8.96;100.00
79400;BME280;68856;45.586;10.264;2024-01-30T09:48:42;101399.25;;;8.68;100.00
79400;BME280;68856;45.586;10.264;2024-01-30T09:51:11;101407.03;;;9.14;100.00
79400;BME280;68856;45.586;10.264;2024-01-30T09:53:41;101402.66;;;9.34;100.00
79400;BME280;68856;45.586;10.264;2024-01-30T09:56:09;101394.06;;;9.09;99.69
79400;BME280;68856;45.586;10.264;2024-01-30T09:58:35;101407.53;;;9.24;99.36
79400;BME280;68856;45.586;10.264;2024-01-30T10:01:01;101397.72;;;9.44;96.90
79400;BME280;68856;45.586;10.264;2024-01-30T10:03:28;101401.38;;;9.58;95.83
79400;BME280;68856;45.586;10.264;2024-01-30T10:05:55;101404.63;;;9.47;87.89
79400;BME280;68856;45.586;10.264;2024-01-30T10:08:22;101402.66;;;9.62;87.19
79400;BME280;68856;45.586;10.264;2024-01-30T10:10:49;101400.00;;;9.96;95.89
79400;BME280;68856;45.586;10.264;2024-01-30T10:13:16;101397.75;;;10.06;88.09
79400;BME280;68856;45.586;10.264;2024-01-30T10:15:42;101399.44;;;10.07;87.93
79400;BME280;68856;45.586;10.264;2024-01-30T10:18:09;101397.34;;;10.09;79.87
79400;BME280;68856;45.586;10.264;2024-01-30T10:20:36;101399.34;;;10.22;83.46
79400;BME280;68856;45.586;10.264;2024-01-30T10:23:03;101395.94;;;10.13;79.31
79400;BME280;68856;45.586;10.264;2024-01-30T10:25:32;101400.16;;;10.22;81.11
79400;BME280;68856;45.586;10.264;2024-01-30T10:27:59;101393.56;;;10.03;79.34
79400;BME280;68856;45.586;10.264;2024-01-30T10:30:26;101395.81;;;9.93;80.67
79400;BME280;68856;45.586;10.264;2024-01-30T10:32:53;101393.88;;;9.87;79.75
79400;BME280;68856;45.586;10.264;2024-01-30T10:35:19;101388.84;;;10.12;82.44
79400;BME280;68856;45.586;10.264;2024-01-30T10:37:47;101386.94;;;10.53;82.66
79400;BME280;68856;45.586;10.264;2024-01-30T10:40:15;101378.78;;;10.53;75.60
79400;BME280;68856;45.586;10.264;2024-01-30T10:42:45;101381.44;;;11.01;75.93
79400;BME280;68856;45.586;10.264;2024-01-30T10:45:15;101372.06;;;11.23;69.38
79400;BME280;68856;45.586;10.264;2024-01-30T10:47:48;101367.69;;;11.55;67.40
79400;BME280;68856;45.586;10.264;2024-01-30T10:50:15;101366.00;;;11.80;64.85
79400;BME280;68856;45.586;10.264;2024-01-30T10:52:42;101359.31;;;11.69;69.22
79400;BME280;68856;45.586;10.264;2024-01-30T10:55:10;101368.09;;;11.65;69.26
79400;BME280;68856;45.586;10.264;2024-01-30T10:57:37;101351.69;;;12.11;66.03
79400;BME280;68856;45.586;10.264;2024-01-30T11:00:13;101356.13;;;11.99;60.00
79400;BME280;68856;45.586;10.264;2024-01-30T11:02:45;101349.03;;;11.78;71.79
79400;BME280;68856;45.586;10.264;2024-01-30T11:05:12;101347.72;;;12.64;70.04
79400;BME280;68856;45.586;10.264;2024-01-30T11:07:42;101348.53;;;12.96;58.52
79400;BME280;68856;45.586;10.264;2024-01-30T11:10:09;101347.97;;;12.49;54.65
79400;BME280;68856;45.586;10.264;2024-01-30T11:12:40;101342.44;;;12.69;52.58
79400;BME280;68856;45.586;10.264;2024-01-30T11:15:13;101343.75;;;12.91;53.69
79400;BME280;68856;45.586;10.264;2024-01-30T11:17:51;101337.31;;;13.66;49.67
79400;BME280;68856;45.586;10.264;2024-01-30T11:20:22;101342.31;;;14.78;51.32
79400;BME280;68856;45.586;10.264;2024-01-30T11:22:55;101339.63;;;17.20;43.43
79400;BME280;68856;45.586;10.264;2024-01-30T11:25:23;101332.06;;;20.13;35.85
79400;BME280;68856;45.586;10.264;2024-01-30T11:27:52;101329.72;;;21.34;32.12
79400;BME280;68856;45.586;10.264;2024-01-30T11:30:26;101320.88;;;21.37;29.04
79400;BME280;68856;45.586;10.264;2024-01-30T11:35:39;101313.94;;;21.64;28.25
79400;BME280;68856;45.586;10.264;2024-01-30T11:38:06;101314.22;;;21.38;28.89
79400;BME280;68856;45.586;10.264;2024-01-30T11:40:34;101303.63;;;23.13;26.86
79400;BME280;68856;45.586;10.264;2024-01-30T11:43:02;101295.97;;;21.42;26.95
79400;BME280;68856;45.586;10.264;2024-01-30T11:45:29;101296.16;;;22.11;26.36
79400;BME280;68856;45.586;10.264;2024-01-30T11:47:55;101286.66;;;24.11;24.74
79400;BME280;68856;45.586;10.264;2024-01-30T11:50:22;101278.41;;;24.48;24.19
79400;BME280;68856;45.586;10.264;2024-01-30T11:52:49;101280.28;;;24.53;23.20
79400;BME280;68856;45.586;10.264;2024-01-30T11:55:16;101268.38;;;24.05;24.77
79400;BME280;68856;45.586;10.264;2024-01-30T11:57:43;101268.06;;;23.20;24.75
79400;BME280;68856;45.586;10.264;2024-01-30T12:00:18;101269.63;;;25.16;23.16
79400;BME280;68856;45.586;10.264;2024-01-30T12:02:50;101264.00;;;24.84;23.48
79400;BME280;68856;45.586;10.264;2024-01-30T12:05:18;101251.97;;;25.07;23.20
79400;BME280;68856;45.586;10.264;2024-01-30T12:07:45;101247.28;;;25.21;22.50
79400;BME280;68856;45.586;10.264;2024-01-30T12:10:13;101247.84;;;24.67;22.68
79400;BME280;68856;45.586;10.264;2024-01-30T12:12:45;101235.44;;;24.59;22.40
79400;BME280;68856;45.586;10.264;2024-01-30T12:15:11;101237.09;;;22.25;27.27
79400;BME280;68856;45.586;10.264;2024-01-30T12:17:38;101228.66;;;25.35;22.84
79400;BME280;68856;45.586;10.264;2024-01-30T12:25:12;101208.66;;;26.06;20.90
79400;BME280;68856;45.586;10.264;2024-01-30T12:27:41;101191.25;;;26.14;20.69
79400;BME280;68856;45.586;10.264;2024-01-30T12:30:09;101192.75;;;25.79;21.53
79400;BME280;68856;45.586;10.264;2024-01-30T12:32:36;101186.56;;;25.55;21.80
79400;BME280;68856;45.586;10.264;2024-01-30T12:35:03;101181.34;;;26.80;20.45
79400;BME280;68856;45.586;10.264;2024-01-30T12:37:30;101175.78;;;28.03;19.05
79400;BME280;68856;45.586;10.264;2024-01-30T12:39:57;101168.41;;;29.01;19.73
79400;BME280;68856;45.586;10.264;2024-01-30T12:42:23;101161.63;;;29.28;18.29
79400;BME280;68856;45.586;10.264;2024-01-30T12:44:50;101164.19;;;26.86;18.56
79400;BME280;68856;45.586;10.264;2024-01-30T12:47:16;101156.59;;;27.70;18.49